createdAt,value
2017-05-20T00:01:37.657Z,3.33
2017-05-20T00:04:03.817Z,1.93
2017-05-20T00:06:30.005Z,2.03
2017-05-20T00:08:57.078Z,1.95
2017-05-20T00:11:23.981Z,2.20
2017-05-20T00:13:50.166Z,2.20
2017-05-20T00:16:16.739Z,2.00
2017-05-20T00:18:42.890Z,2.50
2017-05-20T00:21:09.805Z,2.60
2017-05-20T00:23:36.746Z,2.80
2017-05-20T00:26:02.917Z,2.73
2017-05-20T00:28:29.850Z,2.40
2017-05-20T00:30:56.050Z,2.70
2017-05-20T00:33:22.950Z,2.57
2017-05-20T00:35:49.890Z,2.60
2017-05-20T00:38:16.082Z,2.62
2017-05-20T00:40:43.003Z,2.80
2017-05-20T00:43:09.930Z,2.80
2017-05-20T00:45:36.865Z,3.20
2017-05-20T00:48:03.799Z,2.70
2017-05-20T00:50:29.953Z,2.32
2017-05-20T00:52:56.133Z,3.13
2017-05-20T00:55:22.305Z,3.10
2017-05-20T00:57:49.219Z,2.75
2017-05-20T01:00:16.147Z,2.80
2017-05-20T01:02:42.326Z,3.30
2017-05-20T01:05:08.496Z,2.12
2017-05-20T01:07:35.527Z,1.25
2017-05-20T01:10:02.083Z,0.72
2017-05-20T01:12:28.247Z,0.80
2017-05-20T01:14:54.434Z,0.60
2017-05-20T01:17:21.365Z,0.65
2017-05-20T01:19:48.290Z,0.57
2017-05-20T01:22:14.470Z,0.70
2017-05-20T01:24:41.390Z,1.30
2017-05-20T01:27:08.323Z,3.02
2017-05-20T01:29:34.481Z,2.70
2017-05-20T01:32:01.404Z,3.28
2017-05-20T01:34:28.337Z,3.80
2017-05-20T01:36:54.548Z,3.97
2017-05-20T01:39:21.595Z,4.45
2017-05-20T01:41:48.526Z,4.72
2017-05-20T01:44:14.726Z,4.37
2017-05-20T01:46:41.683Z,4.53
2017-05-20T01:49:07.883Z,4.58
2017-05-20T01:51:34.063Z,5.25
2017-05-20T01:54:00.973Z,4.82
2017-05-20T01:56:27.903Z,5.07
2017-05-20T01:58:54.083Z,5.58
2017-05-20T02:01:20.278Z,5.78
2017-05-20T02:03:47.187Z,5.90
2017-05-20T02:06:13.374Z,5.40
2017-05-20T02:08:40.298Z,5.20
2017-05-20T02:11:07.204Z,5.20
2017-05-20T02:13:33.382Z,4.73
2017-05-20T02:15:59.929Z,4.70
2017-05-20T02:18:26.867Z,4.90
2017-05-20T02:20:53.037Z,5.75
2017-05-20T02:23:19.973Z,5.77
2017-05-20T02:25:46.158Z,6.35
2017-05-20T02:28:13.074Z,7.38
2017-05-20T02:30:39.281Z,7.80
2017-05-20T02:33:06.203Z,8.13
2017-05-20T02:35:32.383Z,8.90
2017-05-20T02:37:59.313Z,9.38
2017-05-20T02:40:25.480Z,8.73
2017-05-20T02:42:51.650Z,9.50
2017-05-20T02:45:18.561Z,9.43
2017-05-20T02:47:45.474Z,9.53
2017-05-20T02:50:11.662Z,9.05
2017-05-20T02:52:38.928Z,9.32
2017-05-20T02:55:05.109Z,9.40
2017-05-20T02:57:32.034Z,9.22
2017-05-20T02:59:58.949Z,9.35
2017-05-20T03:02:25.117Z,10.75
2017-05-20T03:04:51.303Z,10.62
2017-05-20T03:07:17.486Z,10.88
2017-05-20T03:09:43.667Z,11.37
2017-05-20T03:12:10.579Z,10.67
2017-05-20T03:14:37.510Z,11.23
2017-05-20T03:17:04.416Z,12.23
2017-05-20T03:19:30.613Z,12.27
2017-05-20T03:21:56.797Z,12.00
2017-05-20T03:24:23.709Z,10.90
2017-05-20T03:26:50.609Z,11.95
2017-05-20T03:29:17.526Z,11.13
2017-05-20T03:31:44.428Z,10.48
2017-05-20T03:34:11.371Z,10.30
2017-05-20T03:36:37.556Z,10.65
2017-05-20T03:39:03.747Z,10.30
2017-05-20T03:41:29.893Z,10.08
2017-05-20T03:43:56.812Z,11.82
2017-05-20T03:46:22.997Z,10.45
2017-05-20T03:48:49.911Z,10.00
2017-05-20T03:51:16.850Z,10.43
2017-05-20T03:53:43.010Z,9.53
2017-05-20T03:56:09.170Z,9.02
2017-05-20T03:58:36.442Z,9.42
2017-05-20T04:01:03.353Z,9.20
2017-05-20T04:03:29.522Z,9.42
2017-05-20T04:05:55.707Z,9.58
2017-05-20T04:08:21.894Z,9.02
2017-05-20T04:10:48.090Z,9.05
2017-05-20T04:13:15.066Z,9.10
2017-05-20T04:15:41.236Z,9.73
2017-05-20T04:18:08.138Z,15.02
2017-05-20T04:20:34.336Z,9.02
2017-05-20T04:23:01.557Z,9.03
2017-05-20T04:25:27.725Z,9.12
2017-05-20T04:27:54.646Z,9.20
2017-05-20T04:30:21.561Z,9.35
2017-05-20T04:32:47.734Z,10.05
2017-05-20T04:35:14.656Z,8.48
2017-05-20T04:37:40.823Z,8.72
2017-05-20T04:40:06.994Z,8.27
2017-05-20T04:42:33.186Z,8.30
2017-05-20T04:45:00.099Z,8.50
2017-05-20T04:47:26.282Z,8.48
2017-05-20T04:49:53.230Z,9.05
2017-05-20T04:52:19.431Z,8.60
2017-05-20T04:54:46.342Z,8.30
2017-05-20T04:57:12.534Z,8.05
2017-05-20T04:59:38.709Z,7.77
2017-05-20T05:02:04.929Z,7.00
2017-05-20T05:04:31.166Z,8.67
2017-05-20T05:06:58.072Z,6.07
2017-05-20T05:09:24.255Z,5.83
2017-05-20T05:11:51.223Z,5.75
2017-05-20T05:14:18.228Z,5.32
2017-05-20T05:16:44.446Z,5.30
2017-05-20T05:19:10.683Z,5.25
2017-05-20T05:21:37.638Z,5.20
2017-05-20T05:24:04.581Z,4.60
2017-05-20T05:26:31.503Z,4.67
2017-05-20T05:28:58.441Z,5.17
2017-05-20T05:31:24.684Z,4.90
2017-05-20T05:33:51.206Z,4.58
2017-05-20T05:36:18.136Z,4.85
2017-05-20T05:38:44.369Z,5.15
2017-05-20T05:41:11.509Z,4.85
2017-05-20T05:43:38.430Z,4.65
2017-05-20T05:46:04.628Z,4.67
2017-05-20T05:48:31.548Z,4.45
2017-05-20T05:50:58.463Z,4.98
2017-05-20T05:53:24.626Z,4.57
2017-05-20T05:55:51.545Z,5.20
2017-05-20T05:58:17.709Z,4.50
2017-05-20T06:00:44.648Z,4.75
2017-05-20T06:03:10.854Z,5.15
2017-05-20T06:05:37.024Z,5.02
2017-05-20T06:08:03.980Z,4.70
2017-05-20T06:10:30.334Z,4.53
2017-05-20T06:12:56.563Z,4.90
2017-05-20T06:15:23.564Z,6.45
2017-05-20T06:17:50.535Z,4.82
2017-05-20T06:20:16.742Z,4.95
2017-05-20T06:22:42.955Z,5.20
2017-05-20T06:25:09.897Z,5.48
2017-05-20T06:27:36.084Z,5.12
2017-05-20T06:30:03.007Z,5.30
2017-05-20T06:32:29.217Z,5.00
2017-05-20T06:34:56.134Z,4.60
2017-05-20T06:37:22.345Z,5.10
2017-05-20T06:39:48.831Z,4.78
2017-05-20T06:42:15.728Z,6.25
2017-05-20T06:44:42.650Z,6.70
2017-05-20T06:47:08.850Z,9.62
2017-05-20T06:49:35.038Z,6.83
2017-05-20T06:52:01.228Z,7.30
2017-05-20T06:54:27.433Z,7.27
2017-05-20T06:56:53.621Z,7.32
2017-05-20T06:59:19.773Z,7.00
2017-05-20T07:01:46.705Z,6.70
2017-05-20T07:04:13.620Z,6.28
2017-05-20T07:06:39.852Z,5.60
2017-05-20T07:09:06.614Z,5.35
2017-05-20T07:11:33.565Z,5.40
2017-05-20T07:13:59.733Z,6.32
2017-05-20T07:16:26.983Z,6.13
2017-05-20T07:18:53.909Z,6.48
2017-05-20T07:21:20.859Z,6.43
2017-05-20T07:23:47.765Z,6.40
2017-05-20T07:26:13.954Z,6.15
2017-05-20T07:28:40.878Z,5.90
2017-05-20T07:31:07.147Z,6.28
2017-05-20T07:33:33.334Z,6.25
2017-05-20T07:35:59.507Z,6.83
2017-05-20T07:38:26.465Z,6.63
2017-05-20T07:40:53.425Z,7.12
2017-05-20T07:43:19.625Z,8.77
2017-05-20T07:45:45.852Z,6.62
2017-05-20T07:48:12.796Z,6.07
2017-05-20T07:50:39.731Z,6.83
2017-05-20T07:53:06.652Z,6.10
2017-05-20T07:55:33.603Z,6.80
2017-05-20T07:58:00.537Z,6.52
2017-05-20T08:00:27.475Z,6.35
2017-05-20T08:02:53.649Z,7.82
2017-05-20T08:05:20.566Z,7.66
2017-05-20T08:07:46.766Z,8.60
2017-05-20T08:10:12.977Z,7.90
2017-05-20T08:12:39.191Z,7.60
2017-05-20T08:15:05.428Z,7.45
2017-05-20T08:17:31.626Z,6.10
2017-05-20T08:19:57.867Z,7.17
2017-05-20T08:22:24.059Z,7.70
2017-05-20T08:24:50.280Z,8.00
2017-05-20T08:27:16.641Z,7.93
2017-05-20T08:29:43.664Z,7.78
2017-05-20T08:32:09.909Z,7.45
2017-05-20T08:34:36.088Z,7.52
2017-05-20T08:37:02.331Z,7.70
2017-05-20T08:39:28.543Z,8.12
2017-05-20T08:41:55.591Z,9.42
2017-05-20T08:44:21.819Z,9.87
2017-05-20T08:46:48.059Z,9.90
2017-05-20T08:49:14.275Z,8.90
2017-05-20T08:51:41.306Z,9.23
2017-05-20T08:54:07.513Z,10.30
2017-05-20T08:56:34.526Z,9.76
2017-05-20T08:59:00.702Z,9.18
2017-05-20T09:01:26.908Z,10.02
2017-05-20T09:03:53.117Z,10.27
2017-05-20T09:06:20.049Z,9.53
2017-05-20T09:08:47.064Z,9.85
2017-05-20T09:11:13.243Z,8.84
2017-05-20T09:13:40.491Z,9.42
2017-05-20T09:16:06.701Z,8.50
2017-05-20T09:18:32.920Z,8.87
2017-05-20T09:20:59.484Z,9.13
2017-05-20T09:23:25.687Z,10.03
2017-05-20T09:25:52.607Z,9.42
2017-05-20T09:28:19.561Z,9.43
2017-05-20T09:30:46.473Z,9.58
2017-05-20T09:33:13.412Z,8.10
2017-05-20T09:35:39.641Z,7.46
2017-05-20T09:38:05.840Z,8.47
2017-05-20T09:40:32.033Z,8.27
2017-05-20T09:42:58.983Z,9.73
2017-05-20T09:45:25.203Z,8.93
2017-05-20T09:47:52.135Z,9.05
2017-05-20T09:50:18.326Z,8.22
2017-05-20T09:52:45.230Z,7.80
2017-05-20T09:55:11.425Z,7.52
2017-05-20T09:57:37.632Z,8.30
2017-05-20T10:00:04.557Z,10.02
2017-05-20T10:02:30.763Z,8.63
2017-05-20T10:04:57.694Z,9.73
2017-05-20T10:07:24.616Z,10.38
2017-05-20T10:09:51.562Z,10.00
2017-05-20T10:12:18.602Z,9.98
2017-05-20T10:14:45.643Z,9.68
2017-05-20T10:17:12.602Z,9.30
2017-05-20T10:19:39.970Z,10.30
2017-05-20T10:22:06.189Z,10.90
2017-05-20T10:24:33.244Z,11.90
2017-05-20T10:26:59.498Z,10.57
2017-05-20T10:29:26.415Z,10.84
2017-05-20T10:31:53.361Z,10.50
2017-05-20T10:34:20.320Z,8.98
2017-05-20T10:36:47.273Z,9.10
2017-05-20T10:39:14.185Z,9.72
2017-05-20T10:41:41.132Z,9.95
2017-05-20T10:44:08.072Z,10.45
2017-05-20T10:46:35.014Z,10.58
2017-05-20T10:49:01.971Z,10.17
2017-05-20T10:51:28.923Z,10.92
2017-05-20T10:53:55.927Z,8.65
2017-05-20T10:56:22.879Z,9.07
2017-05-20T10:58:49.099Z,9.07
2017-05-20T11:01:15.375Z,7.63
2017-05-20T11:03:41.586Z,8.28
2017-05-20T11:06:07.771Z,8.03
2017-05-20T11:08:34.026Z,6.75
2017-05-20T11:11:00.270Z,6.77
2017-05-20T11:13:26.470Z,7.67
2017-05-20T11:15:52.701Z,7.90
2017-05-20T11:18:19.204Z,7.08
2017-05-20T11:20:46.189Z,5.58
2017-05-20T11:23:12.431Z,5.90
2017-05-20T11:25:38.949Z,5.98
2017-05-20T11:28:05.194Z,5.73
2017-05-20T11:30:32.148Z,5.70
2017-05-20T11:32:58.753Z,5.37
2017-05-20T11:41:24.736Z,4.73
2017-05-20T11:43:54.784Z,4.38
2017-05-20T11:46:25.176Z,3.77
2017-05-20T11:48:55.886Z,5.97
2017-05-20T11:51:26.550Z,3.50
2017-05-20T11:53:57.509Z,4.02
2017-05-20T11:56:27.416Z,4.98
2017-05-20T11:58:58.207Z,4.63
2017-05-20T12:01:31.032Z,4.35
2017-05-20T12:03:58.274Z,4.02
2017-05-20T12:06:26.695Z,4.32
2017-05-20T12:08:53.972Z,4.20
2017-05-20T12:11:21.217Z,3.88
2017-05-20T12:13:48.446Z,4.27
2017-05-20T12:16:15.692Z,4.58
2017-05-20T12:18:43.352Z,5.05
2017-05-20T12:21:10.650Z,3.70
2017-05-20T12:23:38.257Z,3.38
2017-05-20T12:26:05.451Z,3.37
2017-05-20T12:28:32.660Z,3.05
2017-05-20T12:31:15.200Z,2.90
2017-05-20T12:33:42.897Z,2.72
2017-05-20T12:36:10.098Z,3.30
2017-05-20T12:38:37.280Z,4.10
2017-05-20T12:41:04.631Z,3.15
2017-05-20T12:43:31.817Z,3.08
2017-05-20T12:45:59.017Z,3.27
2017-05-20T12:48:26.226Z,3.30
2017-05-20T12:50:54.489Z,3.52
2017-05-20T12:53:21.783Z,5.05
2017-05-20T12:55:49.373Z,3.48
2017-05-20T12:58:16.642Z,3.08
2017-05-20T13:00:43.917Z,2.68
2017-05-20T13:03:11.135Z,2.60
2017-05-20T13:05:38.320Z,2.82
2017-05-20T13:08:05.539Z,3.97
2017-05-20T13:10:32.743Z,2.45
2017-05-20T13:12:59.986Z,2.40
2017-05-20T13:15:27.202Z,2.87
2017-05-20T13:17:54.429Z,2.37
2017-05-20T13:20:21.600Z,3.20
2017-05-20T13:22:48.972Z,3.05
2017-05-20T13:25:16.246Z,3.42
2017-05-20T13:27:43.445Z,3.40
2017-05-20T13:30:10.695Z,3.13
2017-05-20T13:32:37.869Z,3.04
2017-05-20T13:35:05.242Z,2.97
2017-05-20T13:37:32.518Z,3.23
2017-05-20T13:39:59.704Z,4.32
2017-05-20T13:42:26.966Z,3.63
2017-05-20T13:44:54.180Z,2.40
2017-05-20T13:47:21.456Z,3.05
2017-05-20T13:49:49.335Z,2.90
2017-05-20T13:52:16.570Z,2.52
2017-05-20T13:54:43.761Z,2.50
2017-05-20T13:57:10.968Z,2.60
2017-05-20T13:59:38.136Z,2.50
2017-05-20T14:02:05.380Z,2.75
2017-05-20T14:04:32.586Z,2.50
2017-05-20T14:06:59.827Z,2.20
2017-05-20T14:09:27.010Z,2.93
2017-05-20T14:11:54.165Z,5.13
2017-05-20T14:14:21.448Z,2.30
2017-05-20T14:16:48.663Z,2.43
2017-05-20T14:19:15.872Z,4.54
2017-05-20T14:21:43.112Z,2.75
2017-05-20T14:24:10.422Z,3.32
2017-05-20T14:26:37.624Z,2.82
2017-05-20T14:29:05.466Z,3.58
2017-05-20T14:31:32.756Z,2.28
2017-05-20T14:34:00.018Z,2.10
2017-05-20T14:36:27.290Z,5.70
2017-05-20T14:38:54.458Z,2.23
2017-05-20T14:41:21.638Z,2.40
2017-05-20T14:43:48.890Z,3.50
2017-05-20T14:46:16.109Z,3.38
2017-05-20T14:48:43.327Z,2.52
2017-05-20T14:51:10.543Z,2.67
2017-05-20T14:53:37.747Z,3.08
2017-05-20T14:56:04.927Z,3.00
2017-05-20T14:58:32.144Z,2.42
2017-05-20T15:01:14.246Z,2.78
2017-05-20T15:03:41.446Z,1.94
2017-05-20T15:06:09.293Z,3.42
2017-05-20T15:08:36.490Z,1.95
2017-05-20T15:11:04.173Z,2.80
2017-05-20T15:13:31.455Z,2.30
2017-05-20T15:15:58.935Z,2.00
2017-05-20T15:18:26.214Z,10.05
2017-05-20T15:20:54.094Z,4.10
2017-05-20T15:23:21.295Z,3.80
2017-05-20T15:25:48.502Z,3.42
2017-05-20T15:28:16.430Z,3.25
2017-05-20T15:30:43.709Z,2.12
2017-05-20T15:33:10.980Z,3.77
2017-05-20T15:35:38.255Z,3.70
2017-05-20T15:38:05.533Z,3.07
2017-05-20T15:40:32.802Z,2.83
2017-05-20T15:43:00.079Z,3.14
2017-05-20T15:45:27.316Z,3.53
2017-05-20T15:47:54.544Z,3.28
2017-05-20T15:50:21.797Z,2.60
2017-05-20T15:52:49.077Z,2.20
2017-05-20T15:55:16.276Z,2.92
2017-05-20T15:57:43.522Z,2.30
2017-05-20T16:00:10.792Z,3.45
2017-05-20T16:02:38.068Z,3.62
2017-05-20T16:05:05.549Z,3.20
2017-05-20T16:07:32.766Z,3.35
2017-05-20T16:09:59.946Z,3.76
2017-05-20T16:12:27.367Z,3.55
2017-05-20T16:14:54.650Z,2.62
2017-05-20T16:17:21.847Z,3.03
2017-05-20T16:19:49.047Z,3.05
2017-05-20T16:22:16.245Z,2.70
2017-05-20T16:24:44.128Z,3.02
2017-05-20T16:27:11.344Z,2.53
2017-05-20T16:29:38.595Z,3.45
2017-05-20T16:32:05.804Z,2.32
2017-05-20T16:34:33.041Z,2.30
2017-05-20T16:37:00.316Z,3.47
2017-05-20T16:39:27.569Z,3.27
2017-05-20T16:41:54.866Z,2.60
2017-05-20T16:44:22.142Z,2.88
2017-05-20T16:46:49.395Z,3.55
2017-05-20T16:49:16.612Z,4.12
2017-05-20T16:51:43.862Z,3.20
2017-05-20T16:54:11.134Z,3.63
2017-05-20T16:56:38.373Z,3.08
2017-05-20T16:59:05.598Z,3.50
2017-05-20T17:01:33.320Z,3.53
2017-05-20T17:04:00.638Z,3.70
2017-05-20T17:06:27.821Z,2.90
2017-05-20T17:08:55.090Z,3.60
2017-05-20T17:11:22.359Z,3.93
2017-05-20T17:13:49.582Z,4.20
2017-05-20T17:16:17.117Z,3.44
2017-05-20T17:18:44.295Z,4.22
2017-05-20T17:21:11.556Z,3.88
2017-05-20T17:23:38.835Z,2.83
2017-05-20T17:26:06.038Z,2.92
2017-05-20T17:28:33.291Z,2.72
2017-05-20T17:31:00.479Z,4.78
2017-05-20T17:33:27.687Z,3.45
2017-05-20T17:35:55.002Z,2.58
2017-05-20T17:38:22.200Z,2.60
2017-05-20T17:40:49.411Z,3.38
2017-05-20T17:43:16.603Z,5.73
2017-05-20T17:45:43.828Z,2.60
2017-05-20T17:48:11.068Z,2.52
2017-05-20T17:50:38.277Z,2.52
2017-05-20T17:53:05.458Z,3.72
2017-05-20T17:55:32.677Z,3.40
2017-05-20T17:57:59.862Z,2.50
2017-05-20T18:00:27.132Z,3.60
2017-05-20T18:02:54.364Z,2.48
2017-05-20T18:05:21.593Z,3.57
2017-05-20T18:07:48.851Z,2.85
2017-05-20T18:10:16.125Z,2.62
2017-05-20T18:12:43.484Z,4.56
2017-05-20T18:15:10.780Z,2.60
2017-05-20T18:17:38.168Z,2.78
2017-05-20T18:20:05.398Z,2.40
2017-05-20T18:22:32.635Z,3.43
2017-05-20T18:24:59.978Z,2.45
2017-05-20T18:27:27.193Z,2.68
2017-05-20T18:29:54.391Z,3.07
2017-05-20T18:32:21.609Z,3.62
2017-05-20T18:34:48.873Z,2.40
2017-05-20T18:37:16.110Z,2.33
2017-05-20T18:39:43.364Z,2.50
2017-05-20T18:42:10.594Z,4.50
2017-05-20T18:44:37.930Z,3.00
2017-05-20T18:47:05.249Z,3.03
2017-05-20T18:49:32.443Z,2.53
2017-05-20T18:51:59.635Z,3.07
2017-05-20T18:54:26.961Z,2.70
2017-05-20T18:56:54.240Z,2.57
2017-05-20T18:59:21.920Z,2.83
2017-05-20T19:01:49.176Z,2.80
2017-05-20T19:04:16.425Z,2.88
2017-05-20T19:06:43.820Z,2.55
2017-05-20T19:09:11.219Z,5.40
2017-05-20T19:11:38.507Z,3.07
2017-05-20T19:14:05.717Z,4.15
2017-05-20T19:16:32.921Z,4.38
2017-05-20T19:19:00.196Z,3.38
2017-05-20T19:21:27.449Z,3.40
2017-05-20T19:23:54.768Z,4.00
2017-05-20T19:26:21.962Z,2.90
2017-05-20T19:28:49.313Z,3.55
2017-05-20T19:31:16.559Z,3.08
2017-05-20T19:33:44.379Z,3.22
2017-05-20T19:36:11.755Z,4.12
2017-05-20T19:38:39.625Z,3.90
2017-05-20T19:41:06.832Z,3.80
2017-05-20T19:43:34.030Z,3.12
2017-05-20T19:46:01.256Z,3.50
2017-05-20T19:48:28.482Z,4.43
2017-05-20T19:50:55.805Z,3.84
2017-05-20T19:53:23.017Z,3.62
2017-05-20T19:55:50.355Z,4.10
2017-05-20T19:58:17.629Z,3.58
2017-05-20T20:00:44.965Z,4.52
2017-05-20T20:03:12.278Z,3.57
2017-05-20T20:05:39.503Z,3.30
2017-05-20T20:08:06.833Z,3.55
2017-05-20T20:10:34.108Z,4.68
2017-05-20T20:13:01.346Z,3.28
2017-05-20T20:15:29.249Z,3.10
2017-05-20T20:17:56.435Z,3.53
2017-05-20T20:20:23.635Z,4.57
2017-05-20T20:22:50.839Z,3.52
2017-05-20T20:25:18.074Z,3.10
2017-05-20T20:27:45.328Z,4.00
2017-05-20T20:30:12.513Z,3.10
2017-05-20T20:32:39.790Z,3.78
2017-05-20T20:35:07.325Z,3.35
2017-05-20T20:37:34.527Z,3.07
2017-05-20T20:40:01.980Z,3.15
2017-05-20T20:42:29.339Z,4.25
2017-05-20T20:44:56.658Z,3.35
2017-05-20T20:47:23.947Z,3.30
2017-05-20T20:49:51.327Z,3.53
2017-05-20T20:52:18.660Z,3.60
2017-05-20T20:54:45.960Z,3.73
2017-05-20T20:57:13.840Z,4.18
2017-05-20T20:59:41.225Z,5.58
2017-05-20T21:02:08.608Z,4.16
2017-05-20T21:04:35.909Z,5.40
2017-05-20T21:07:03.258Z,4.65
2017-05-20T21:09:30.730Z,4.13
2017-05-20T21:11:57.974Z,4.44
2017-05-20T21:14:25.482Z,4.28
2017-05-20T21:16:52.868Z,3.96
2017-05-20T21:19:20.219Z,4.15
2017-05-20T21:21:47.589Z,4.58
2017-05-20T21:24:14.819Z,4.28
2017-05-20T21:26:42.043Z,4.46
2017-05-20T21:29:09.537Z,4.17
2017-05-20T21:31:36.814Z,4.30
2017-05-20T21:34:04.040Z,4.55
2017-05-20T21:36:31.665Z,4.78
2017-05-20T21:38:58.940Z,4.54
2017-05-20T21:41:26.324Z,4.22
2017-05-20T21:43:54.137Z,4.27
2017-05-20T21:46:21.325Z,5.27
2017-05-20T21:48:48.606Z,3.72
2017-05-20T21:51:16.387Z,4.03
2017-05-20T21:53:43.594Z,6.20
2017-05-20T21:56:10.834Z,4.43
2017-05-20T21:58:38.076Z,4.25
2017-05-20T22:01:05.330Z,4.35
2017-05-20T22:03:32.855Z,4.00
2017-05-20T22:06:00.077Z,4.53
2017-05-20T22:08:27.357Z,4.22
2017-05-20T22:10:54.532Z,4.42
2017-05-20T22:13:21.804Z,4.12
2017-05-20T22:16:03.956Z,4.22
2017-05-20T22:18:31.520Z,4.52
2017-05-20T22:20:58.680Z,5.03
2017-05-20T22:23:25.857Z,4.70
2017-05-20T22:25:53.540Z,5.20
2017-05-20T22:28:20.725Z,5.27
2017-05-20T22:30:48.021Z,5.17
2017-05-20T22:33:15.231Z,5.32
2017-05-20T22:35:42.410Z,4.95
2017-05-20T22:38:09.586Z,5.60
2017-05-20T22:40:37.006Z,5.50
2017-05-20T22:43:04.170Z,5.37
2017-05-20T22:45:31.360Z,5.78
2017-05-20T22:47:58.551Z,5.45
2017-05-20T22:50:25.835Z,5.38
2017-05-20T22:52:53.028Z,5.90
2017-05-20T22:55:20.284Z,5.58
2017-05-20T22:57:47.692Z,5.35
2017-05-20T23:00:15.098Z,5.80
2017-05-20T23:02:42.312Z,5.47
2017-05-20T23:05:09.509Z,5.58
2017-05-20T23:07:36.876Z,5.80
2017-05-20T23:10:04.213Z,6.17
2017-05-20T23:12:31.393Z,6.27
2017-05-20T23:14:58.688Z,6.20
2017-05-20T23:17:25.882Z,6.05
2017-05-20T23:19:53.222Z,6.93
2017-05-20T23:22:20.516Z,6.73
2017-05-20T23:24:47.794Z,6.60
2017-05-20T23:27:14.970Z,6.75
2017-05-20T23:29:42.310Z,7.33
2017-05-20T23:32:09.514Z,7.42
2017-05-20T23:34:37.023Z,7.20
2017-05-20T23:37:04.243Z,7.27
2017-05-20T23:39:31.439Z,7.27
2017-05-20T23:41:58.948Z,7.08
2017-05-20T23:44:26.143Z,7.52
2017-05-20T23:46:53.520Z,7.12
2017-05-20T23:49:20.929Z,6.70
2017-05-20T23:51:48.125Z,7.60
2017-05-20T23:54:15.328Z,7.30
2017-05-20T23:56:42.513Z,7.37
2017-05-20T23:59:10.047Z,7.43
